Time;durP1;ratioP1;P1;durP2;ratioP2;P2;SDS_P1;SDS_P2;PMS_P1;PMS_P2;Temp;Humidity;BMP_temperature;BMP_pressure;BME280_temperature;BME280_humidity;BME280_pressure;Samples;Min_cycle;Max_cycle;Signal;HPM_P1;HPM_P2
2022/06/10 00:01:37;;;;;;;17.27;2.80;;;12.20;99.90;;;;;;5072566;28;20048;-77
2022/06/10 00:04:03;;;;;;;14.48;2.35;;;12.20;99.90;;;;;;5072376;28;20060;-76
2022/06/10 00:06:29;;;;;;;12.05;2.38;;;12.20;99.90;;;;;;5071970;28;20048;-77
2022/06/10 00:08:54;;;;;;;13.38;2.40;;;12.10;99.90;;;;;;5072406;28;20097;-77
2022/06/10 00:11:20;;;;;;;12.07;2.40;;;12.10;99.90;;;;;;5072414;28;20407;-77
2022/06/10 00:13:46;;;;;;;13.43;2.25;;;12.10;99.90;;;;;;5072487;28;20056;-77
2022/06/10 00:16:14;;;;;;;10.63;2.15;;;12.00;99.90;;;;;;5072896;28;20115;-78
2022/06/10 00:18:40;;;;;;;11.02;2.42;;;12.10;99.90;;;;;;5071892;28;20040;-77
2022/06/10 00:21:08;;;;;;;10.30;2.40;;;12.00;99.90;;;;;;5072114;28;20084;-78
2022/06/10 00:23:34;;;;;;;9.20;2.80;;;12.10;99.90;;;;;;5072074;28;20495;-80
2022/06/10 00:25:59;;;;;;;11.13;2.30;;;11.90;99.90;;;;;;5092309;28;20044;-77
2022/06/10 00:28:25;;;;;;;10.93;2.75;;;12.00;99.90;;;;;;5078715;28;20083;-78
2022/06/10 00:30:51;;;;;;;15.38;2.22;;;11.90;99.90;;;;;;5071916;28;20138;-78
2022/06/10 00:33:16;;;;;;;10.43;2.80;;;12.30;99.90;;;;;;5071865;28;20033;-77
2022/06/10 00:35:43;;;;;;;7.95;2.20;;;11.90;99.90;;;;;;5071876;28;20462;-77
2022/06/10 00:38:09;;;;;;;13.52;2.65;;;11.90;99.90;;;;;;5072065;28;20407;-78
2022/06/10 00:40:38;;;;;;;7.93;2.03;;;11.90;99.90;;;;;;5071977;28;20098;-78
2022/06/10 00:43:04;;;;;;;9.68;2.55;;;11.90;99.90;;;;;;5071716;28;20052;-78
2022/06/10 00:45:53;;;;;;;12.35;2.75;;;12.00;99.90;;;;;;5071698;28;20048;-77
2022/06/10 00:48:44;;;;;;;12.30;2.47;;;11.80;99.90;;;;;;5050498;28;20135;-78
2022/06/10 00:51:28;;;;;;;9.65;2.45;;;11.80;99.90;;;;;;5051496;28;20515;-78
2022/06/10 00:53:59;;;;;;;9.77;2.05;;;11.80;99.90;;;;;;5051747;28;20057;-78
2022/06/10 00:56:27;;;;;;;10.63;2.70;;;12.10;99.90;;;;;;5035712;28;20151;-78
2022/06/10 00:59:01;;;;;;;7.90;2.28;;;11.80;99.90;;;;;;5071100;28;20044;-78
2022/06/10 01:01:29;;;;;;;12.57;2.40;;;12.00;99.90;;;;;;5071460;28;20078;-78
2022/06/10 01:03:56;;;;;;;12.60;2.60;;;11.80;99.90;;;;;;5053130;28;20676;-78
2022/06/10 01:06:22;;;;;;;13.13;2.47;;;11.80;99.90;;;;;;5071230;28;20079;-78
2022/06/10 01:08:49;;;;;;;12.32;2.83;;;11.80;99.90;;;;;;5070970;28;20044;-78
2022/06/10 01:11:47;;;;;;;13.55;2.10;;;11.80;99.90;;;;;;5071150;28;20047;-78
2022/06/10 01:15:10;;;;;;;11.85;2.83;;;11.70;99.90;;;;;;5071154;28;20040;-78
2022/06/10 01:18:21;;;;;;;9.52;2.20;;;11.70;99.90;;;;;;5009648;28;20049;-77
2022/06/10 01:21:07;;;;;;;12.13;2.20;;;11.70;99.90;;;;;;5008314;28;20074;-78
2022/06/10 01:23:41;;;;;;;8.93;2.25;;;11.70;99.90;;;;;;5009000;28;20050;-78
2022/06/10 01:29:57;;;;;;;9.50;2.53;;;11.60;99.90;;;;;;5009494;28;20058;-78
2022/06/10 01:32:39;;;;;;;12.68;2.95;;;11.70;99.90;;;;;;5008601;28;20081;-78
2022/06/10 01:35:20;;;;;;;8.55;2.60;;;11.60;99.90;;;;;;5008213;28;20058;-78
2022/06/10 01:37:57;;;;;;;8.90;2.38;;;11.60;99.90;;;;;;5008440;28;20505;-77
2022/06/10 01:41:03;;;;;;;10.68;2.55;;;11.70;99.90;;;;;;5009541;28;20131;-77
2022/06/10 01:43:37;;;;;;;14.32;3.00;;;11.60;99.90;;;;;;5008568;28;20049;-77
2022/06/10 01:46:13;;;;;;;8.23;2.45;;;11.60;99.90;;;;;;5008165;28;20065;-77
2022/06/10 01:48:45;;;;;;;13.57;2.83;;;11.50;99.90;;;;;;5045626;28;20565;-77
2022/06/10 01:51:21;;;;;;;7.72;2.30;;;11.70;99.90;;;;;;5070109;28;20047;-77
2022/06/10 01:53:55;;;;;;;10.55;2.97;;;11.50;99.90;;;;;;5069952;28;20095;-76
2022/06/10 01:56:35;;;;;;;12.93;3.15;;;11.50;99.90;;;;;;5070357;28;20121;-77
2022/06/10 01:59:08;;;;;;;11.95;3.20;;;11.50;99.90;;;;;;5070025;28;20042;-77
2022/06/10 02:01:42;;;;;;;10.32;3.03;;;11.50;99.90;;;;;;5053254;28;20530;-77
2022/06/10 02:04:17;;;;;;;11.75;2.88;;;11.40;99.90;;;;;;5070120;28;20048;-77
2022/06/10 02:07:06;;;;;;;12.38;2.90;;;11.40;99.90;;;;;;5069942;28;20566;-77
2022/06/10 02:09:44;;;;;;;10.73;2.92;;;11.50;99.90;;;;;;5070243;28;20059;-77
2022/06/10 02:12:33;;;;;;;11.63;3.72;;;11.40;99.90;;;;;;5069832;28;20119;-77
2022/06/10 02:15:04;;;;;;;11.48;2.55;;;11.40;99.90;;;;;;5067404;28;20049;-77
2022/06/10 02:17:38;;;;;;;9.93;2.85;;;11.40;99.90;;;;;;5069054;28;20057;-77
2022/06/10 02:20:06;;;;;;;15.98;3.28;;;11.40;99.90;;;;;;5067531;28;20052;-77
2022/06/10 02:22:37;;;;;;;12.15;3.38;;;11.40;99.90;;;;;;5069302;28;20507;-77
2022/06/10 02:25:30;;;;;;;15.32;3.35;;;11.30;99.90;;;;;;5051482;28;20045;-77
2022/06/10 02:28:06;;;;;;;12.73;2.85;;;11.40;99.90;;;;;;5069342;28;20124;-77
2022/06/10 02:30:43;;;;;;;11.07;2.67;;;11.30;99.90;;;;;;5069865;28;20068;-77
2022/06/10 02:33:10;;;;;;;10.38;3.00;;;11.40;99.90;;;;;;5069334;28;20043;-77
2022/06/10 02:35:44;;;;;;;10.80;3.05;;;11.30;99.90;;;;;;5068936;28;20087;-77
2022/06/10 02:38:30;;;;;;;9.63;2.78;;;11.30;99.90;;;;;;5069566;28;20079;-75
2022/06/10 02:40:59;;;;;;;9.95;3.22;;;11.30;99.90;;;;;;5069819;28;20048;-78
2022/06/10 02:43:24;;;;;;;9.27;3.05;;;11.30;99.90;;;;;;5051997;28;20109;-78
2022/06/10 02:46:04;;;;;;;13.18;3.25;;;11.40;99.90;;;;;;5069533;28;20047;-76
2022/06/10 02:48:45;;;;;;;11.55;3.50;;;11.30;99.90;;;;;;5068920;28;20779;-78
2022/06/10 02:51:10;;;;;;;13.43;2.83;;;11.30;99.90;;;;;;5069739;28;20056;-78
2022/06/10 02:53:36;;;;;;;13.88;2.85;;;11.30;99.90;;;;;;5069518;28;20106;-77
2022/06/10 02:56:13;;;;;;;10.80;3.30;;;11.30;99.90;;;;;;5056555;28;20060;-79
2022/06/10 03:01:30;;;;;;;14.70;3.47;;;11.30;99.90;;;;;;5069646;28;20045;-77
2022/06/10 03:04:25;;;;;;;14.68;2.88;;;11.30;99.90;;;;;;5068961;28;20682;-77
2022/06/10 03:07:02;;;;;;;12.00;2.92;;;11.30;99.90;;;;;;5069577;28;20051;-76
2022/06/10 03:10:01;;;;;;;9.77;2.78;;;11.30;99.90;;;;;;5069645;28;20056;-77
2022/06/10 03:12:38;;;;;;;13.07;2.95;;;11.30;99.90;;;;;;5073773;28;20045;-78
2022/06/10 03:15:30;;;;;;;13.68;3.00;;;11.40;99.90;;;;;;5073788;28;20055;-77
2022/06/10 03:18:04;;;;;;;13.95;3.70;;;11.30;99.90;;;;;;5080649;28;20055;-78
2022/06/10 03:21:10;;;;;;;11.55;3.40;;;11.30;99.90;;;;;;5071391;28;20056;-77
2022/06/10 03:23:44;;;;;;;10.80;2.85;;;11.30;99.90;;;;;;4991197;28;20108;-77
2022/06/10 03:26:40;;;;;;;12.13;3.13;;;11.30;99.90;;;;;;4991355;28;20049;-77
2022/06/10 03:29:42;;;;;;;10.43;2.20;;;11.30;99.90;;;;;;4989750;28;20050;-77
2022/06/10 03:32:17;;;;;;;13.65;2.72;;;11.30;99.90;;;;;;4991558;28;20047;-77
2022/06/10 03:34:48;;;;;;;9.88;2.75;;;11.30;99.90;;;;;;4991753;28;20121;-77
2022/06/10 03:37:17;;;;;;;9.20;2.45;;;11.30;99.90;;;;;;4991138;28;20456;-78
2022/06/10 03:39:50;;;;;;;11.82;2.80;;;11.30;99.90;;;;;;4991343;28;20477;-77
2022/06/10 03:42:18;;;;;;;11.45;2.70;;;11.30;99.90;;;;;;4991243;28;20084;-76
2022/06/10 03:44:47;;;;;;;14.02;3.30;;;11.30;99.90;;;;;;4991447;28;20046;-77
2022/06/10 03:47:17;;;;;;;14.82;2.58;;;11.30;99.90;;;;;;4990788;28;20073;-77
2022/06/10 03:49:50;;;;;;;11.52;3.17;;;11.30;99.90;;;;;;4975020;28;20406;-77
2022/06/10 03:52:23;;;;;;;11.18;2.92;;;11.30;99.90;;;;;;4975366;28;20074;-77
2022/06/10 03:54:48;;;;;;;13.82;3.10;;;11.40;99.90;;;;;;4990572;28;20057;-78
2022/06/10 03:57:17;;;;;;;14.98;3.08;;;11.30;99.90;;;;;;4990884;28;20046;-76
2022/06/10 03:59:43;;;;;;;13.00;2.60;;;11.50;99.90;;;;;;5021614;28;20064;-77
2022/06/10 04:02:09;;;;;;;12.68;2.92;;;11.30;99.90;;;;;;5072840;28;20036;-77
2022/06/10 04:04:34;;;;;;;12.38;3.05;;;11.40;99.90;;;;;;5072512;28;20384;-77
2022/06/10 04:07:00;;;;;;;14.25;2.80;;;11.40;99.90;;;;;;5072250;28;20458;-77
2022/06/10 04:09:26;;;;;;;11.63;2.60;;;11.40;99.90;;;;;;5071525;28;20056;-76
2022/06/10 04:11:51;;;;;;;8.35;2.65;;;11.50;99.90;;;;;;5072880;28;20393;-76
2022/06/10 04:14:17;;;;;;;13.68;2.70;;;11.40;99.90;;;;;;5072414;28;20052;-76
2022/06/10 04:16:43;;;;;;;11.57;2.53;;;11.50;99.90;;;;;;5072804;28;20044;-76
2022/06/10 04:19:11;;;;;;;8.27;2.47;;;11.50;99.90;;;;;;5071118;28;20482;-76
2022/06/10 04:21:37;;;;;;;17.13;3.00;;;11.60;99.90;;;;;;5053047;28;20052;-76
2022/06/10 04:24:03;;;;;;;14.02;2.65;;;11.60;99.90;;;;;;5092079;28;20052;-76
2022/06/10 04:26:29;;;;;;;13.70;2.85;;;11.60;99.90;;;;;;5092748;28;20044;-75
2022/06/10 04:28:55;;;;;;;11.77;2.90;;;11.70;99.90;;;;;;5085897;28;20689;-77
2022/06/10 04:31:20;;;;;;;10.02;2.95;;;11.80;99.90;;;;;;5072433;28;20044;-77
2022/06/10 04:33:46;;;;;;;14.57;2.90;;;11.80;99.90;;;;;;5072332;28;20056;-76
2022/06/10 04:36:18;;;;;;;13.38;2.80;;;11.90;99.90;;;;;;5072221;28;20045;-75
2022/06/10 04:38:44;;;;;;;17.20;3.17;;;11.90;99.90;;;;;;5072319;28;20036;-76
2022/06/10 04:41:11;;;;;;;14.65;2.70;;;12.10;99.90;;;;;;5071525;28;20786;-76
2022/06/10 04:43:37;;;;;;;12.55;2.50;;;12.10;99.90;;;;;;5072136;28;20052;-73
2022/06/10 04:46:06;;;;;;;20.35;3.00;;;12.50;99.90;;;;;;5072128;28;20036;-74
2022/06/10 04:48:32;;;;;;;14.98;2.95;;;12.50;99.90;;;;;;5071596;28;20124;-74
2022/06/10 04:50:58;;;;;;;15.00;3.40;;;12.50;99.90;;;;;;5071415;28;20032;-76
2022/06/10 04:53:24;;;;;;;10.20;2.83;;;12.60;99.90;;;;;;5072128;28;20557;-76
2022/06/10 04:55:49;;;;;;;14.93;2.88;;;12.70;99.90;;;;;;5071650;28;20124;-76
2022/06/10 04:58:15;;;;;;;16.38;3.03;;;12.80;99.90;;;;;;5054134;28;20150;-76
2022/06/10 05:00:45;;;;;;;16.00;2.90;;;12.90;99.90;;;;;;5071557;28;20404;-76
2022/06/10 05:03:11;;;;;;;12.75;3.05;;;13.00;99.90;;;;;;5071989;28;20053;-76
2022/06/10 05:05:37;;;;;;;17.00;3.10;;;13.30;99.90;;;;;;5071596;28;20040;-75
2022/06/10 05:08:05;;;;;;;16.80;3.15;;;13.20;99.90;;;;;;5071748;28;20048;-76
2022/06/10 05:10:31;;;;;;;14.15;3.45;;;13.20;99.90;;;;;;5071348;28;20139;-76
2022/06/10 05:12:56;;;;;;;10.90;2.67;;;13.30;99.90;;;;;;5071186;28;20126;-76
2022/06/10 05:15:22;;;;;;;13.00;3.20;;;13.40;99.90;;;;;;5071188;28;20078;-76
2022/06/10 05:17:50;;;;;;;12.57;2.70;;;13.50;99.90;;;;;;5069742;28;20387;-76
2022/06/10 05:20:23;;;;;;;12.40;3.00;;;13.50;99.90;;;;;;5052949;28;20052;-75
2022/06/10 05:22:49;;;;;;;12.63;3.47;;;13.60;99.90;;;;;;5070768;28;20094;-77
2022/06/10 05:25:15;;;;;;;14.10;3.30;;;13.80;99.90;;;;;;5070829;28;20155;-76
2022/06/10 05:27:41;;;;;;;15.10;3.50;;;13.70;99.90;;;;;;5070943;28;20211;-76
2022/06/10 05:30:09;;;;;;;12.98;3.17;;;13.80;99.90;;;;;;5070933;28;20044;-76
2022/06/10 05:32:36;;;;;;;11.82;2.92;;;13.80;99.90;;;;;;5068572;28;20037;-74
2022/06/10 05:35:01;;;;;;;15.55;3.10;;;13.90;99.90;;;;;;5066109;28;20126;-76
2022/06/10 05:37:27;;;;;;;16.83;3.40;;;14.00;99.90;;;;;;5070832;28;20052;-77
2022/06/10 05:39:54;;;;;;;13.95;3.47;;;14.00;99.90;;;;;;5070803;28;20044;-75
2022/06/10 05:42:20;;;;;;;14.38;3.05;;;14.00;99.90;;;;;;5070164;28;20051;-76
2022/06/10 05:44:48;;;;;;;13.05;2.90;;;14.40;99.90;;;;;;5070474;28;20095;-77
2022/06/10 05:47:20;;;;;;;14.55;3.55;;;14.20;99.90;;;;;;5070361;28;20396;-77
2022/06/10 05:49:48;;;;;;;14.52;2.85;;;14.20;99.90;;;;;;5082106;28;20538;-75
2022/06/10 05:52:16;;;;;;;13.00;2.55;;;14.20;99.90;;;;;;5091043;28;20036;-78
2022/06/10 05:54:45;;;;;;;15.10;3.20;;;14.50;99.90;;;;;;5075982;28;20545;-75
2022/06/10 05:57:11;;;;;;;10.15;2.92;;;14.30;99.90;;;;;;5070534;28;20060;-75
2022/06/10 05:59:37;;;;;;;15.02;3.78;;;14.40;99.90;;;;;;5070629;28;20044;-76
2022/06/10 06:02:05;;;;;;;15.15;2.83;;;14.50;99.90;;;;;;5070136;28;20060;-75
2022/06/10 06:04:31;;;;;;;13.07;3.58;;;14.50;99.90;;;;;;5082207;28;20081;-75
2022/06/10 06:06:57;;;;;;;14.90;3.45;;;14.50;99.90;;;;;;5070344;28;20048;-77
2022/06/10 06:09:23;;;;;;;14.45;3.83;;;14.60;99.90;;;;;;5070401;28;20052;-75
2022/06/10 06:11:50;;;;;;;14.93;3.05;;;14.60;99.90;;;;;;5069832;28;20041;-76
2022/06/10 06:14:17;;;;;;;11.15;3.92;;;14.70;99.90;;;;;;5070131;28;20047;-76
2022/06/10 06:16:49;;;;;;;14.77;3.90;;;14.80;99.90;;;;;;5069920;28;20059;-75
2022/06/10 06:19:14;;;;;;;11.10;3.45;;;14.80;99.90;;;;;;5083038;28;20044;-77
2022/06/10 06:21:40;;;;;;;15.32;4.40;;;14.80;99.90;;;;;;5068551;28;20052;-78
2022/06/10 06:24:06;;;;;;;15.48;4.18;;;14.80;99.90;;;;;;5069097;28;20107;-75
2022/06/10 06:26:32;;;;;;;18.67;4.45;;;14.80;99.90;;;;;;5068859;28;20151;-77
2022/06/10 06:28:57;;;;;;;19.92;4.53;;;14.90;99.90;;;;;;5051539;28;20059;-77
2022/06/10 06:31:23;;;;;;;15.43;4.10;;;14.90;99.90;;;;;;5070016;28;20041;-77
2022/06/10 06:33:49;;;;;;;15.85;3.90;;;14.80;99.90;;;;;;5051641;28;20479;-77
2022/06/10 06:36:20;;;;;;;14.07;4.05;;;14.80;99.90;;;;;;5052934;28;20445;-78
2022/06/10 06:38:45;;;;;;;12.30;4.03;;;14.80;99.90;;;;;;5069739;28;20044;-76
2022/06/10 06:41:11;;;;;;;16.25;4.22;;;14.90;99.90;;;;;;5070397;28;20044;-76
2022/06/10 06:43:37;;;;;;;10.30;4.10;;;15.00;99.90;;;;;;5069838;28;20071;-77
2022/06/10 06:46:03;;;;;;;14.68;4.72;;;15.10;99.90;;;;;;5069744;28;20123;-77
2022/06/10 06:48:29;;;;;;;14.13;4.00;;;15.20;99.90;;;;;;5069035;28;20047;-78
2022/06/10 06:50:55;;;;;;;15.02;4.40;;;15.30;99.90;;;;;;5070107;28;20406;-78
2022/06/10 06:53:21;;;;;;;11.05;4.07;;;15.40;99.90;;;;;;5070344;28;20049;-77
2022/06/10 06:55:47;;;;;;;12.48;4.20;;;15.50;99.90;;;;;;5068505;28;20158;-77
2022/06/10 06:58:16;;;;;;;14.07;3.80;;;15.60;99.90;;;;;;5090319;28;20044;-76
2022/06/10 07:00:41;;;;;;;13.63;4.10;;;15.70;99.90;;;;;;5079355;28;20059;-75
2022/06/10 07:03:08;;;;;;;16.42;3.30;;;15.90;99.90;;;;;;5070121;28;20040;-78
2022/06/10 07:05:35;;;;;;;16.35;4.13;;;15.80;99.90;;;;;;5070407;28;20044;-78
2022/06/10 07:08:01;;;;;;;18.15;4.60;;;15.90;99.90;;;;;;5070171;28;20084;-78
2022/06/10 07:10:28;;;;;;;16.35;4.30;;;15.90;99.90;;;;;;5070069;28;20037;-78
2022/06/10 07:12:54;;;;;;;11.80;4.20;;;16.00;99.90;;;;;;5069956;28;20371;-78
2022/06/10 07:15:21;;;;;;;20.23;4.47;;;16.00;99.90;;;;;;5052231;28;20056;-76
2022/06/10 07:17:47;;;;;;;17.88;5.30;;;16.00;99.90;;;;;;5070126;28;20041;-77
2022/06/10 07:20:24;;;;;;;11.25;4.93;;;16.10;99.90;;;;;;5051487;28;20495;-77
2022/06/10 07:22:50;;;;;;;19.20;5.72;;;16.10;99.90;;;;;;5069935;28;20052;-76
2022/06/10 07:25:16;;;;;;;17.67;5.40;;;16.10;99.90;;;;;;5070192;28;20056;-76
2022/06/10 07:27:43;;;;;;;8.82;4.60;;;16.10;99.90;;;;;;5051937;28;20079;-77
2022/06/10 07:30:10;;;;;;;15.15;5.28;;;16.20;99.90;;;;;;5069955;28;20057;-77
2022/06/10 07:32:36;;;;;;;17.58;5.85;;;16.20;99.90;;;;;;5069827;28;20045;-79
2022/06/10 07:35:02;;;;;;;10.13;4.38;;;16.30;99.90;;;;;;5069833;28;20051;-77
2022/06/10 07:37:28;;;;;;;14.43;4.85;;;16.30;99.90;;;;;;5069809;28;20048;-76
2022/06/10 07:39:54;;;;;;;16.67;5.22;;;16.30;99.90;;;;;;5069861;28;20037;-77
2022/06/10 07:42:19;;;;;;;14.27;5.10;;;16.40;99.90;;;;;;5070096;28;20463;-76
2022/06/10 07:44:45;;;;;;;14.13;4.88;;;16.50;99.90;;;;;;5069665;28;20079;-78
2022/06/10 07:47:13;;;;;;;14.57;5.18;;;16.50;99.90;;;;;;5069784;28;20052;-78
2022/06/10 07:49:39;;;;;;;14.15;4.50;;;16.70;99.90;;;;;;5069240;28;20056;-77
2022/06/10 07:52:06;;;;;;;11.00;4.90;;;16.50;99.90;;;;;;5051840;28;20095;-78
2022/06/10 07:54:36;;;;;;;11.23;4.28;;;16.50;99.90;;;;;;5070321;28;20049;-75
2022/06/10 07:57:04;;;;;;;12.57;4.68;;;16.40;99.90;;;;;;5052207;28;20132;-79
2022/06/10 07:59:30;;;;;;;10.40;4.63;;;16.50;99.90;;;;;;5069052;28;20051;-77
2022/06/10 08:01:55;;;;;;;17.05;4.70;;;16.50;99.90;;;;;;5072720;28;20044;-78
2022/06/10 08:04:22;;;;;;;10.38;4.78;;;16.50;99.90;;;;;;5073056;28;20056;-77
2022/06/10 08:06:48;;;;;;;14.10;5.03;;;16.60;99.90;;;;;;5054812;28;20041;-77
2022/06/10 08:09:17;;;;;;;11.52;5.22;;;16.70;99.90;;;;;;5073199;28;20052;-77
2022/06/10 08:11:43;;;;;;;15.77;5.25;;;16.80;99.90;;;;;;5072121;28;20060;-76
2022/06/10 08:14:08;;;;;;;15.77;5.25;;;16.80;99.90;;;;;;5067876;28;20113;-75
2022/06/10 08:16:35;;;;;;;12.13;5.43;;;16.90;99.90;;;;;;5058551;28;20033;-77
2022/06/10 08:19:01;;;;;;;18.33;5.78;;;17.00;99.90;;;;;;5072304;28;20044;-77
2022/06/10 08:24:12;;;;;;;16.42;6.20;;;17.10;99.90;;;;;;5075613;28;20051;-78
2022/06/10 08:26:38;;;;;;;13.93;5.03;;;17.10;99.90;;;;;;5072844;28;20087;-78
2022/06/10 08:29:04;;;;;;;18.92;5.95;;;17.10;99.90;;;;;;5062943;28;20084;-76
2022/06/10 08:31:31;;;;;;;17.10;5.30;;;17.10;99.90;;;;;;5070825;28;20107;-77
2022/06/10 08:33:57;;;;;;;11.43;4.80;;;17.20;99.90;;;;;;5072430;28;20075;-78
2022/06/10 08:36:23;;;;;;;14.10;5.03;;;17.30;99.90;;;;;;5072221;28;20051;-77
2022/06/10 08:38:49;;;;;;;15.73;4.88;;;17.10;99.90;;;;;;5057941;28;20055;-77
2022/06/10 08:41:47;;;;;;;21.00;4.53;;;17.10;99.90;;;;;;5074825;28;20048;-77
2022/06/10 08:44:17;;;;;;;11.30;4.57;;;17.10;99.90;;;;;;5070656;28;20041;-77
2022/06/10 08:46:57;;;;;;;17.80;5.07;;;17.10;99.90;;;;;;5071919;28;20517;-76
2022/06/10 08:49:54;;;;;;;13.20;4.88;;;17.10;99.90;;;;;;5072009;28;20055;-76
2022/06/10 08:52:57;;;;;;;19.05;6.07;;;17.10;99.90;;;;;;5072287;28;20121;-77
2022/06/10 08:55:50;;;;;;;19.92;6.43;;;17.20;99.90;;;;;;5072028;28;20456;-77
2022/06/10 08:58:30;;;;;;;18.75;6.20;;;17.30;99.90;;;;;;5071453;28;20133;-78
2022/06/10 09:01:00;;;;;;;15.05;5.85;;;17.30;99.90;;;;;;5071834;28;20043;-79
2022/06/10 09:03:32;;;;;;;19.70;6.15;;;17.30;99.90;;;;;;5071979;28;20127;-77
2022/06/10 09:06:03;;;;;;;17.13;5.22;;;17.40;99.90;;;;;;5068993;28;20044;-77
2022/06/10 09:08:37;;;;;;;13.93;5.05;;;17.50;99.90;;;;;;5071008;28;20539;-79
2022/06/10 09:11:13;;;;;;;14.35;4.85;;;17.50;99.90;;;;;;5071956;28;20123;-77
2022/06/10 09:13:44;;;;;;;16.55;4.78;;;17.60;99.90;;;;;;5070827;28;20514;-78
2022/06/10 09:16:25;;;;;;;17.25;4.53;;;17.50;99.90;;;;;;5071569;28;20083;-79
2022/06/10 09:19:15;;;;;;;19.98;4.55;;;17.50;99.90;;;;;;5071197;28;20036;-78
2022/06/10 09:21:57;;;;;;;11.27;3.95;;;17.40;99.90;;;;;;5071337;28;20126;-79
2022/06/10 09:24:43;;;;;;;16.73;4.38;;;17.50;99.90;;;;;;5071482;28;20102;-77
2022/06/10 09:27:30;;;;;;;13.38;4.25;;;17.40;99.90;;;;;;5071112;28;20135;-78
2022/06/10 09:29:57;;;;;;;12.93;4.78;;;17.50;99.90;;;;;;5071278;28;20088;-78
2022/06/10 09:32:52;;;;;;;13.52;4.97;;;17.40;99.90;;;;;;5052591;28;20136;-77
2022/06/10 09:35:26;;;;;;;13.65;4.90;;;17.30;99.90;;;;;;5071684;28;20379;-80
2022/06/10 09:38:31;;;;;;;11.70;4.00;;;17.40;99.90;;;;;;5071420;28;20162;-77
2022/06/10 09:41:26;;;;;;;14.77;4.72;;;17.40;99.90;;;;;;5071183;28;20050;-79
2022/06/10 09:44:13;;;;;;;15.80;4.03;;;17.50;99.90;;;;;;5071197;28;20063;-77
2022/06/10 09:46:50;;;;;;;15.80;4.55;;;17.60;99.90;;;;;;5071281;28;20048;-78
2022/06/10 09:49:34;;;;;;;15.43;4.40;;;17.60;99.90;;;;;;5070893;28;20048;-79
2022/06/10 09:51:59;;;;;;;15.82;4.68;;;17.80;99.90;;;;;;5071634;28;20052;-79
2022/06/10 09:55:03;;;;;;;15.73;4.18;;;17.70;99.90;;;;;;5071421;28;20047;-79
2022/06/10 09:57:52;;;;;;;14.35;4.32;;;17.80;99.90;;;;;;5070825;28;20045;-79
2022/06/10 10:00:36;;;;;;;14.40;4.32;;;17.80;99.90;;;;;;5071212;28;20040;-76
2022/06/10 10:03:17;;;;;;;18.08;4.88;;;17.80;99.90;;;;;;5052831;28;20052;-78
2022/06/10 10:06:20;;;;;;;14.93;4.65;;;17.80;99.90;;;;;;5070876;28;20053;-78
2022/06/10 10:09:21;;;;;;;18.20;5.60;;;17.80;99.90;;;;;;5070809;28;20052;-80
2022/06/10 10:12:08;;;;;;;19.27;6.00;;;17.80;99.90;;;;;;5070629;28;20501;-79
2022/06/10 10:15:15;;;;;;;18.30;5.07;;;17.90;99.90;;;;;;5052852;28;20063;-81
2022/06/10 10:18:08;;;;;;;14.07;5.15;;;18.00;99.90;;;;;;5008313;28;20068;-79
2022/06/10 10:21:10;;;;;;;12.80;5.55;;;18.10;99.90;;;;;;5012962;28;20053;-78
2022/06/10 10:23:44;;;;;;;17.95;5.30;;;18.10;99.90;;;;;;5028327;28;20053;-77
2022/06/10 10:26:32;;;;;;;19.23;5.57;;;18.20;99.90;;;;;;5028423;28;20061;-78
2022/06/10 10:29:07;;;;;;;12.95;5.35;;;18.20;99.90;;;;;;5027898;28;20558;-79
2022/06/10 10:31:38;;;;;;;17.33;5.70;;;18.20;99.90;;;;;;5011781;28;20054;-77
2022/06/10 10:34:05;;;;;;;15.20;5.50;;;18.20;99.90;;;;;;5027918;28;20053;-78
2022/06/10 10:36:49;;;;;;;14.73;5.50;;;18.30;99.90;;;;;;5028267;28;20128;-79
2022/06/10 10:39:38;;;;;;;13.60;4.93;;;18.30;99.90;;;;;;5028121;28;20038;-79
2022/06/10 10:42:19;;;;;;;12.40;4.72;;;18.30;99.90;;;;;;5012154;28;20057;-79
2022/06/10 10:45:05;;;;;;;13.98;5.03;;;18.20;99.90;;;;;;5028275;28;20045;-81
2022/06/10 10:47:34;;;;;;;12.27;4.72;;;18.30;99.90;;;;;;5028213;28;20070;-79
2022/06/10 10:50:05;;;;;;;11.13;4.78;;;18.30;99.90;;;;;;5027727;28;20057;-80
2022/06/10 10:52:34;;;;;;;17.73;5.00;;;18.20;99.90;;;;;;5031867;28;20060;-76
2022/06/10 10:55:14;;;;;;;14.27;4.90;;;18.30;99.90;;;;;;5050556;28;20057;-79
2022/06/10 10:57:44;;;;;;;17.63;4.97;;;18.30;99.90;;;;;;5050412;28;20053;-76
2022/06/10 11:00:10;;;;;;;13.10;4.53;;;18.40;99.90;;;;;;5050267;28;20053;-79
2022/06/10 11:02:38;;;;;;;12.70;4.68;;;18.30;99.90;;;;;;5050069;28;20142;-75
2022/06/10 11:05:34;;;;;;;21.02;5.15;;;18.40;99.90;;;;;;5050170;28;20037;-77
2022/06/10 11:08:23;;;;;;;16.45;4.90;;;18.40;99.90;;;;;;5049992;28;20041;-79
2022/06/10 11:11:05;;;;;;;10.95;4.65;;;18.40;99.90;;;;;;5050227;28;20041;-78
2022/06/10 11:13:54;;;;;;;10.20;4.43;;;18.40;99.90;;;;;;5050047;28;20056;-77
2022/06/10 11:16:31;;;;;;;8.68;4.22;;;18.50;99.90;;;;;;5050150;28;20075;-78
2022/06/10 11:19:11;;;;;;;8.60;4.00;;;18.70;99.90;;;;;;5050143;28;20052;-77
2022/06/10 11:21:51;;;;;;;9.25;4.05;;;18.90;99.90;;;;;;5061920;28;20492;-80
2022/06/10 11:24:22;;;;;;;9.90;3.80;;;19.10;99.90;;;;;;5070223;28;20056;-78
2022/06/10 11:26:59;;;;;;;9.07;4.38;;;19.40;99.90;;;;;;5070094;28;20452;-78
2022/06/10 11:29:27;;;;;;;16.95;5.20;;;19.40;99.90;;;;;;5069944;28;20049;-80
2022/06/10 11:32:01;;;;;;;14.07;4.60;;;19.40;99.90;;;;;;5072169;28;20049;-80
2022/06/10 11:34:35;;;;;;;14.18;4.72;;;19.50;99.90;;;;;;5073523;28;20499;-80
2022/06/10 11:37:17;;;;;;;15.35;4.18;;;19.70;99.90;;;;;;5073010;28;20049;-79
2022/06/10 11:39:49;;;;;;;10.48;3.53;;;19.80;99.90;;;;;;5073636;28;20076;-79
2022/06/10 11:42:28;;;;;;;14.70;4.13;;;19.90;99.90;;;;;;5073308;28;20092;-81
2022/06/10 11:45:10;;;;;;;9.77;3.85;;;19.80;99.90;;;;;;5073544;28;20084;-81
2022/06/10 11:47:47;;;;;;;13.10;4.15;;;20.00;99.90;;;;;;5073280;28;20049;-79
2022/06/10 11:50:19;;;;;;;13.55;4.65;;;20.20;99.90;;;;;;5073248;28;20569;-78
2022/06/10 11:53:14;;;;;;;16.75;4.78;;;20.40;99.90;;;;;;5073289;28;20933;-80
2022/06/10 11:55:43;;;;;;;14.55;5.03;;;20.80;99.90;;;;;;5073586;28;20052;-80
2022/06/10 12:00:55;;;;;;;13.05;5.03;;;21.10;99.90;;;;;;5055556;28;20053;-78
2022/06/10 12:03:40;;;;;;;12.02;4.90;;;21.10;99.90;;;;;;5073175;28;20181;-81
2022/06/10 12:06:27;;;;;;;15.05;5.25;;;21.20;99.90;;;;;;5073287;28;20094;-78
2022/06/10 12:09:01;;;;;;;11.30;5.13;;;21.10;99.90;;;;;;5072879;28;20063;-77
2022/06/10 12:11:35;;;;;;;12.77;5.13;;;20.90;99.90;;;;;;5073093;28;20530;-78
2022/06/10 12:14:19;;;;;;;16.40;5.93;;;20.80;99.90;;;;;;5055394;28;20395;-78
2022/06/10 12:16:52;;;;;;;13.00;5.20;;;20.60;99.90;;;;;;5055020;28;20465;-79
2022/06/10 12:19:28;;;;;;;13.35;4.68;;;20.60;99.90;;;;;;5073169;28;20084;-79
2022/06/10 12:21:54;;;;;;;13.10;5.18;;;20.50;99.90;;;;;;5072775;28;20060;-78
2022/06/10 12:24:20;;;;;;;14.10;5.05;;;20.50;99.90;;;;;;5054676;28;20052;-79
2022/06/10 12:27:00;;;;;;;18.65;5.32;;;20.40;99.90;;;;;;5072565;28;20131;-81
2022/06/10 12:29:47;;;;;;;16.25;4.68;;;20.30;99.90;;;;;;5072865;28;20044;-77
2022/06/10 12:32:32;;;;;;;10.80;4.40;;;20.30;99.90;;;;;;5072485;28;20066;-78
2022/06/10 12:35:28;;;;;;;15.55;5.03;;;20.50;99.90;;;;;;5072509;28;20077;-79
2022/06/10 12:37:59;;;;;;;13.48;4.70;;;20.60;99.90;;;;;;5053230;28;20056;-78
2022/06/10 12:40:41;;;;;;;11.57;4.82;;;20.70;99.90;;;;;;5072578;28;20047;-79
2022/06/10 12:43:09;;;;;;;12.70;4.68;;;20.60;99.90;;;;;;5053181;28;20048;-80
2022/06/10 12:45:55;;;;;;;12.65;5.20;;;20.60;99.90;;;;;;5072112;28;20574;-79
2022/06/10 12:48:26;;;;;;;14.20;4.60;;;20.50;99.90;;;;;;5071473;28;20411;-80
2022/06/10 12:51:01;;;;;;;13.55;4.60;;;20.50;99.90;;;;;;5072357;28;20708;-80
2022/06/10 12:53:54;;;;;;;11.80;4.28;;;20.40;99.90;;;;;;5071928;28;20124;-78
2022/06/10 12:56:26;;;;;;;10.85;3.95;;;20.40;99.90;;;;;;5072191;28;20403;-81
2022/06/10 12:59:04;;;;;;;13.48;4.07;;;20.40;99.90;;;;;;5072279;28;20056;-77
2022/06/10 13:01:29;;;;;;;11.57;4.28;;;20.40;99.90;;;;;;5072130;28;20052;-80
2022/06/10 13:04:11;;;;;;;12.43;4.38;;;20.50;99.90;;;;;;5054350;28;20121;-78
2022/06/10 13:06:43;;;;;;;9.68;3.80;;;20.50;99.90;;;;;;5054263;28;20046;-78
2022/06/10 13:09:12;;;;;;;9.15;3.70;;;20.50;99.90;;;;;;5053705;28;20048;-79
2022/06/10 13:11:46;;;;;;;11.55;3.80;;;20.50;99.90;;;;;;5071835;28;20044;-79
2022/06/10 13:14:30;;;;;;;8.88;3.22;;;21.00;99.90;;;;;;5071808;28;20045;-77
2022/06/10 13:16:58;;;;;;;5.70;2.30;;;21.30;99.90;;;;;;5071995;28;20048;-81
2022/06/10 13:19:38;;;;;;;6.15;2.13;;;21.30;99.90;;;;;;5054077;28;20059;-79
2022/06/10 13:22:21;;;;;;;4.72;1.77;;;21.50;99.90;;;;;;5071339;28;20411;-79
2022/06/10 13:24:53;;;;;;;7.32;1.75;;;21.80;99.90;;;;;;5053709;28;20161;-79